createdAt,value
2022-08-19T00:00:22.227Z,25.92
2022-08-19T00:02:51.056Z,27.35
2022-08-19T00:05:19.816Z,27.67
2022-08-19T00:07:49.451Z,25.08
2022-08-19T00:10:24.657Z,25.10
2022-08-19T00:12:51.854Z,23.00
2022-08-19T00:15:20.955Z,24.45
2022-08-19T00:17:48.460Z,25.25
2022-08-19T00:20:20.932Z,27.73
2022-08-19T00:22:52.180Z,24.55
2022-08-19T00:25:19.336Z,25.90
2022-08-19T00:27:58.673Z,28.58
2022-08-19T00:30:27.758Z,26.80
2022-08-19T00:32:56.570Z,23.77
2022-08-19T00:35:23.297Z,24.10
2022-08-19T00:37:49.951Z,23.48
2022-08-19T00:40:20.446Z,24.15
2022-08-19T00:42:49.300Z,24.73
2022-08-19T00:45:20.512Z,26.73
2022-08-19T00:47:47.241Z,25.92
2022-08-19T00:50:19.439Z,30.42
2022-08-19T00:52:51.623Z,25.25
2022-08-19T00:57:55.524Z,30.13
2022-08-19T01:03:14.973Z,28.23
2022-08-19T01:05:45.449Z,26.35
2022-08-19T01:08:14.111Z,26.67
2022-08-19T01:11:10.400Z,25.63
2022-08-19T01:13:49.236Z,28.02
2022-08-19T01:16:20.634Z,26.40
2022-08-19T01:18:48.531Z,28.58
2022-08-19T01:21:33.355Z,28.40
2022-08-19T01:26:47.087Z,27.90
2022-08-19T01:29:18.547Z,28.98
2022-08-19T01:31:52.342Z,24.58
2022-08-19T01:34:24.100Z,27.02
2022-08-19T01:37:16.065Z,22.90
2022-08-19T01:39:56.961Z,22.83
2022-08-19T01:42:30.602Z,24.30
2022-08-19T01:45:01.573Z,25.40
2022-08-19T01:47:29.646Z,29.55
2022-08-19T01:49:58.263Z,25.00
2022-08-19T01:52:25.545Z,26.95
2022-08-19T01:55:04.557Z,28.20
2022-08-19T01:57:31.379Z,28.52
2022-08-19T02:00:05.941Z,27.30
2022-08-19T02:02:44.165Z,27.23
2022-08-19T02:05:37.051Z,26.38
2022-08-19T02:08:05.819Z,24.75
2022-08-19T02:10:36.441Z,26.55
2022-08-19T02:13:03.289Z,26.08
2022-08-19T02:15:55.666Z,28.42
2022-08-19T02:18:27.973Z,26.50
2022-08-19T02:20:55.491Z,31.38
2022-08-19T02:23:22.267Z,26.92
2022-08-19T02:26:18.485Z,27.08
2022-08-19T02:40:21.631Z,25.73
2022-08-19T02:42:48.863Z,24.92
2022-08-19T02:45:16.387Z,25.08
2022-08-19T02:47:43.279Z,30.65
2022-08-19T02:50:10.149Z,26.17
2022-08-19T02:52:36.797Z,26.42
2022-08-19T02:55:06.924Z,25.00
2022-08-19T02:57:34.516Z,26.20
2022-08-19T03:00:01.956Z,26.58
2022-08-19T03:02:31.613Z,26.08
2022-08-19T03:05:04.686Z,23.25
2022-08-19T03:07:34.015Z,22.75
2022-08-19T03:10:00.802Z,26.27
2022-08-19T03:12:37.126Z,28.23
2022-08-19T03:15:08.182Z,24.65
2022-08-19T03:17:37.618Z,24.85
2022-08-19T03:20:07.430Z,24.67
2022-08-19T03:22:40.039Z,26.40
2022-08-19T03:28:02.803Z,26.13
2022-08-19T03:30:32.366Z,28.02
2022-08-19T03:35:42.692Z,23.77
2022-08-19T03:38:11.629Z,25.92
2022-08-19T03:44:18.905Z,25.08
2022-08-19T03:47:16.276Z,25.00
2022-08-19T03:49:43.619Z,24.63
2022-08-19T03:52:45.376Z,27.27
2022-08-19T03:58:26.317Z,26.20
2022-08-19T04:00:54.718Z,28.73
2022-08-19T04:03:37.654Z,27.30
2022-08-19T04:06:12.858Z,26.48
2022-08-19T04:08:48.329Z,30.17
2022-08-19T04:11:17.942Z,29.52
2022-08-19T04:13:46.191Z,31.58
2022-08-19T04:16:15.495Z,30.67
2022-08-19T04:18:42.908Z,33.72
2022-08-19T04:21:25.680Z,30.63
2022-08-19T04:23:53.131Z,30.40
2022-08-19T04:26:28.685Z,29.13
2022-08-19T04:28:55.861Z,28.15
2022-08-19T04:35:02.391Z,32.00
2022-08-19T04:37:40.303Z,32.58
2022-08-19T04:40:27.516Z,30.10
2022-08-19T04:43:01.835Z,28.88
2022-08-19T04:45:28.502Z,31.23
2022-08-19T04:48:26.547Z,25.75
2022-08-19T04:57:50.729Z,27.13
2022-08-19T05:00:20.331Z,27.08
2022-08-19T05:02:52.075Z,27.95
2022-08-19T05:05:31.665Z,28.88
2022-08-19T05:11:26.312Z,32.13
2022-08-19T05:13:53.334Z,31.20
2022-08-19T05:16:25.928Z,30.15
2022-08-19T05:19:12.215Z,29.77
2022-08-19T05:25:14.543Z,30.10
2022-08-19T05:27:42.168Z,27.65
2022-08-19T05:33:09.627Z,31.05
2022-08-19T05:35:50.200Z,30.45
2022-08-19T05:43:50.407Z,26.05
2022-08-19T05:46:52.811Z,27.13
2022-08-19T05:49:25.997Z,29.27
2022-08-19T05:51:55.766Z,26.45
2022-08-19T05:57:29.120Z,26.98
2022-08-19T05:59:58.548Z,25.77
2022-08-19T06:02:51.434Z,30.55
2022-08-19T06:05:21.517Z,29.08
2022-08-19T06:07:51.931Z,23.48
2022-08-19T06:10:18.754Z,26.77
2022-08-19T06:12:48.942Z,27.08
2022-08-19T06:15:15.808Z,23.05
2022-08-19T06:17:48.165Z,27.15
2022-08-19T06:23:01.744Z,25.55
2022-08-19T06:25:37.959Z,25.55
2022-08-19T06:28:34.835Z,24.02
2022-08-19T06:31:29.553Z,26.73
2022-08-19T06:33:56.223Z,25.77
2022-08-19T06:36:37.518Z,26.42
2022-08-19T06:39:35.246Z,23.02
2022-08-19T06:45:09.216Z,25.17
2022-08-19T06:48:04.881Z,23.05
2022-08-19T06:50:34.932Z,22.73
2022-08-19T06:53:06.201Z,24.52
2022-08-19T06:55:35.272Z,25.20
2022-08-19T06:58:04.053Z,23.35
2022-08-19T07:00:37.016Z,25.63
2022-08-19T07:03:07.717Z,22.40
2022-08-19T07:05:45.780Z,24.55
2022-08-19T07:08:13.981Z,22.80
2022-08-19T07:10:44.655Z,20.52
2022-08-19T07:13:11.830Z,21.58
2022-08-19T07:15:39.819Z,21.88
2022-08-19T07:18:06.577Z,19.55
2022-08-19T07:20:34.587Z,26.10
2022-08-19T07:23:07.114Z,23.25
2022-08-19T07:25:37.541Z,24.10
2022-08-19T07:28:05.041Z,21.23
2022-08-19T07:31:22.716Z,20.80
2022-08-19T07:33:53.300Z,20.92
2022-08-19T07:36:25.359Z,17.63
2022-08-19T07:39:23.985Z,23.42
2022-08-19T07:41:51.074Z,18.70
2022-08-19T07:44:18.857Z,20.35
2022-08-19T07:46:51.550Z,21.65
2022-08-19T07:49:20.834Z,21.10
2022-08-19T07:51:53.943Z,18.08
2022-08-19T07:54:27.496Z,21.25
2022-08-19T07:56:54.923Z,24.60
2022-08-19T07:59:26.989Z,16.10
2022-08-19T08:01:54.126Z,19.20
2022-08-19T08:04:40.132Z,20.35
2022-08-19T08:07:31.549Z,17.48
2022-08-19T08:09:59.788Z,20.02
2022-08-19T08:12:42.196Z,21.40
2022-08-19T08:15:16.642Z,22.35
2022-08-19T08:17:51.478Z,19.45
2022-08-19T08:20:22.099Z,21.92
2022-08-19T08:23:09.691Z,17.50
2022-08-19T08:25:41.044Z,18.40
2022-08-19T08:28:09.306Z,21.33
2022-08-19T08:30:41.669Z,20.20
2022-08-19T08:33:34.371Z,16.17
2022-08-19T08:36:09.079Z,18.00
2022-08-19T08:38:43.387Z,17.85
2022-08-19T08:42:02.072Z,17.20
2022-08-19T08:44:37.143Z,17.75
2022-08-19T08:47:12.757Z,13.95
2022-08-19T08:49:45.334Z,17.25
2022-08-19T08:52:23.140Z,15.45
2022-08-19T08:54:59.700Z,15.32
2022-08-19T08:57:59.575Z,16.05
2022-08-19T09:00:33.193Z,12.95
2022-08-19T09:03:03.550Z,14.87
2022-08-19T09:05:50.166Z,14.15
2022-08-19T09:08:56.589Z,14.50
2022-08-19T09:11:42.520Z,14.43
2022-08-19T09:14:47.451Z,10.38
2022-08-19T09:17:14.139Z,14.00
2022-08-19T09:20:02.545Z,14.45
2022-08-19T09:22:55.025Z,12.60
2022-08-19T09:25:29.420Z,13.80
2022-08-19T09:28:05.877Z,12.27
2022-08-19T09:31:09.539Z,9.65
2022-08-19T09:33:36.340Z,12.60
2022-08-19T09:36:08.833Z,9.48
2022-08-19T09:38:37.154Z,13.40
2022-08-19T09:41:16.894Z,11.73
2022-08-19T09:43:52.262Z,11.23
2022-08-19T09:46:47.176Z,9.15
2022-08-19T09:49:19.389Z,9.13
2022-08-19T09:51:51.401Z,13.57
2022-08-19T09:54:23.480Z,7.50
2022-08-19T09:56:55.431Z,12.20
2022-08-19T09:59:22.616Z,10.77
2022-08-19T10:01:49.525Z,13.68
2022-08-19T10:04:20.012Z,9.05
2022-08-19T10:06:53.466Z,10.43
2022-08-19T10:09:49.314Z,12.23
2022-08-19T10:12:16.015Z,7.60
2022-08-19T10:14:51.312Z,8.98
2022-08-19T10:17:21.428Z,10.30
2022-08-19T10:19:55.611Z,9.80
2022-08-19T10:22:27.253Z,9.07
2022-08-19T10:24:54.434Z,9.70
2022-08-19T10:27:27.460Z,12.50
2022-08-19T10:30:00.127Z,8.57
2022-08-19T10:32:33.807Z,7.05
2022-08-19T10:35:06.237Z,8.75
2022-08-19T10:37:37.198Z,8.02
2022-08-19T10:40:24.496Z,8.13
2022-08-19T10:43:18.244Z,8.35
2022-08-19T10:45:52.863Z,7.85
2022-08-19T10:51:36.616Z,11.38
2022-08-19T10:54:32.134Z,9.68
2022-08-19T10:57:00.371Z,7.43
2022-08-19T10:59:33.803Z,8.55
2022-08-19T11:02:45.395Z,10.00
2022-08-19T11:05:13.693Z,7.93
2022-08-19T11:08:22.333Z,10.20
2022-08-19T11:10:55.597Z,11.45
2022-08-19T11:13:23.407Z,8.25
2022-08-19T11:16:07.061Z,9.52
2022-08-19T11:18:40.747Z,8.02
2022-08-19T11:21:21.201Z,7.32
2022-08-19T11:23:53.201Z,9.90
2022-08-19T11:26:22.905Z,10.50
2022-08-19T11:28:55.398Z,6.50
2022-08-19T11:31:29.244Z,7.72
2022-08-19T11:33:57.867Z,8.63
2022-08-19T11:36:30.699Z,5.85
2022-08-19T11:39:01.891Z,7.18
2022-08-19T11:41:54.396Z,11.18
2022-08-19T11:44:21.131Z,11.80
2022-08-19T11:46:47.926Z,6.28
2022-08-19T11:49:16.558Z,6.88
2022-08-19T11:51:43.563Z,10.73
2022-08-19T11:54:11.092Z,6.20
2022-08-19T11:56:39.066Z,7.20
2022-08-19T11:59:10.490Z,6.78
2022-08-19T12:01:42.757Z,6.93
2022-08-19T12:04:13.812Z,6.43
2022-08-19T12:06:41.389Z,7.93
2022-08-19T12:09:11.269Z,6.78
2022-08-19T12:11:40.907Z,5.32
2022-08-19T12:14:14.504Z,5.80
2022-08-19T12:16:48.669Z,8.68
2022-08-19T12:22:28.539Z,8.43
2022-08-19T12:28:04.070Z,7.22
2022-08-19T12:30:34.449Z,6.38
2022-08-19T12:33:05.050Z,9.40
2022-08-19T12:35:32.107Z,7.63
2022-08-19T12:38:00.196Z,7.63
2022-08-19T12:43:20.688Z,6.93
2022-08-19T12:45:51.498Z,7.18
2022-08-19T12:48:33.899Z,10.02
2022-08-19T12:51:12.500Z,6.93
2022-08-19T12:53:40.197Z,7.80
2022-08-19T12:56:12.543Z,8.98
2022-08-19T12:58:41.902Z,9.23
2022-08-19T13:01:17.556Z,7.50
2022-08-19T13:04:16.133Z,9.98
2022-08-19T13:09:42.788Z,7.10
2022-08-19T13:15:11.218Z,6.88
2022-08-19T13:33:56.424Z,7.05
2022-08-19T13:36:37.806Z,7.07
2022-08-19T13:39:08.632Z,7.65
2022-08-19T13:41:46.583Z,7.38
2022-08-19T13:44:14.003Z,7.47
2022-08-19T13:46:44.815Z,7.25
2022-08-19T13:49:15.388Z,8.52
2022-08-19T13:51:43.484Z,7.63
2022-08-19T13:54:12.245Z,8.60
2022-08-19T13:56:44.971Z,7.43
2022-08-19T13:59:17.993Z,11.25
2022-08-19T14:01:45.353Z,8.27
2022-08-19T14:04:11.997Z,7.00
2022-08-19T14:06:40.768Z,8.05
2022-08-19T14:09:17.920Z,8.35
2022-08-19T14:18:00.942Z,7.93
2022-08-19T14:20:29.798Z,10.48
2022-08-19T14:22:59.578Z,9.95
2022-08-19T14:25:30.922Z,6.95
2022-08-19T14:27:59.841Z,6.70
2022-08-19T14:30:33.548Z,7.78
2022-08-19T14:35:45.159Z,6.75
2022-08-19T14:41:56.711Z,6.10
2022-08-19T14:44:24.671Z,6.57
2022-08-19T14:46:52.307Z,6.53
2022-08-19T14:49:22.462Z,8.32
2022-08-19T14:55:17.840Z,5.30
2022-08-19T15:00:37.064Z,7.05
2022-08-19T15:03:06.147Z,7.88
2022-08-19T15:05:35.946Z,5.75
2022-08-19T15:08:06.529Z,5.20
2022-08-19T15:10:59.728Z,3.75
2022-08-19T15:17:05.036Z,4.35
2022-08-19T15:19:33.507Z,4.32
2022-08-19T15:22:08.866Z,3.70
2022-08-19T15:24:36.756Z,6.90
2022-08-19T15:27:16.329Z,6.95
2022-08-19T15:29:49.388Z,3.65
2022-08-19T15:32:23.507Z,3.70
2022-08-19T15:34:50.162Z,4.57
2022-08-19T15:43:13.967Z,6.85
2022-08-19T15:46:12.711Z,3.75
2022-08-19T15:49:18.819Z,4.70
2022-08-19T15:52:18.834Z,4.57
2022-08-19T15:54:51.299Z,3.53
2022-08-19T16:06:29.839Z,4.00
2022-08-19T16:09:03.797Z,3.90
2022-08-19T16:11:39.148Z,4.60
2022-08-19T16:14:17.787Z,7.75
2022-08-19T16:16:56.053Z,4.10
2022-08-19T16:19:23.655Z,3.83
2022-08-19T16:22:17.889Z,3.65
2022-08-19T16:24:47.122Z,6.65
2022-08-19T16:28:08.840Z,4.63
2022-08-19T16:30:38.622Z,6.43
2022-08-19T16:33:06.567Z,4.22
2022-08-19T16:35:33.588Z,4.78
2022-08-19T16:38:02.355Z,3.58
2022-08-19T16:40:29.249Z,7.65
2022-08-19T16:42:58.273Z,6.88
2022-08-19T16:45:24.933Z,3.95
2022-08-19T16:47:51.556Z,3.90
2022-08-19T16:50:29.221Z,5.78
2022-08-19T16:53:09.105Z,4.72
2022-08-19T16:55:40.432Z,5.05
2022-08-19T16:58:08.904Z,3.72
2022-08-19T17:03:36.249Z,4.85
2022-08-19T17:06:17.692Z,4.18
2022-08-19T17:08:50.916Z,5.68
2022-08-19T17:11:19.479Z,4.35
2022-08-19T17:13:49.571Z,4.55
2022-08-19T17:16:30.985Z,3.95
2022-08-19T17:19:04.460Z,4.18
2022-08-19T17:21:43.945Z,4.85
2022-08-19T17:24:43.022Z,5.22
2022-08-19T17:27:12.614Z,4.50
2022-08-19T17:29:45.100Z,6.28
2022-08-19T17:32:17.650Z,7.07
2022-08-19T17:37:29.192Z,4.32
2022-08-19T17:40:05.621Z,5.57
2022-08-19T17:42:35.948Z,7.72
2022-08-19T17:45:05.282Z,3.88
2022-08-19T17:47:34.252Z,6.50
2022-08-19T17:50:03.429Z,5.28
2022-08-19T17:52:33.432Z,4.45
2022-08-19T17:55:01.935Z,5.65
2022-08-19T17:57:29.941Z,3.90
2022-08-19T17:59:59.265Z,4.20
2022-08-19T18:02:27.579Z,5.18
2022-08-19T18:05:04.029Z,4.82
2022-08-19T18:07:33.536Z,6.65
2022-08-19T18:10:06.044Z,4.43
2022-08-19T18:12:43.458Z,5.13
2022-08-19T18:15:16.709Z,6.97
2022-08-19T18:17:46.125Z,5.30
2022-08-19T18:20:15.634Z,5.00
2022-08-19T18:22:45.146Z,7.35
2022-08-19T18:25:27.049Z,9.63
2022-08-19T18:28:01.902Z,8.48
2022-08-19T18:31:22.773Z,9.00
2022-08-19T18:34:02.305Z,7.95
2022-08-19T18:36:53.066Z,8.00
2022-08-19T18:39:53.094Z,7.20
2022-08-19T18:42:41.088Z,6.85
2022-08-19T18:45:32.088Z,8.43
2022-08-19T18:48:27.322Z,7.38
2022-08-19T18:51:01.240Z,7.20
2022-08-19T18:53:32.791Z,8.70
2022-08-19T18:56:01.536Z,7.38
2022-08-19T18:58:33.970Z,6.95
2022-08-19T19:01:23.278Z,7.63
2022-08-19T19:03:54.336Z,8.53
2022-08-19T19:06:29.078Z,6.28
2022-08-19T19:08:57.544Z,8.25
2022-08-19T19:11:33.090Z,6.43
2022-08-19T19:14:01.794Z,9.02
2022-08-19T19:16:30.155Z,6.68
2022-08-19T19:19:07.159Z,7.37
2022-08-19T19:21:36.244Z,5.82
2022-08-19T19:24:08.225Z,7.18
2022-08-19T19:26:38.274Z,7.78
2022-08-19T19:29:05.900Z,6.50
2022-08-19T19:31:32.846Z,9.55
2022-08-19T19:33:59.922Z,5.95
2022-08-19T19:36:26.621Z,6.60
2022-08-19T19:38:55.820Z,4.80
2022-08-19T19:41:23.960Z,5.07
2022-08-19T19:44:16.468Z,5.30
2022-08-19T19:46:46.196Z,5.43
2022-08-19T19:49:15.956Z,4.80
2022-08-19T19:51:48.240Z,5.00
2022-08-19T19:54:22.966Z,5.57
2022-08-19T19:56:53.186Z,5.95
2022-08-19T19:59:20.422Z,6.60
2022-08-19T20:01:49.882Z,4.28
2022-08-19T20:04:21.581Z,7.60
2022-08-19T20:06:50.400Z,3.72
2022-08-19T20:09:20.587Z,3.63
2022-08-19T20:11:53.430Z,5.03
2022-08-19T20:14:34.995Z,4.47
2022-08-19T20:17:03.760Z,4.57
2022-08-19T20:19:33.500Z,5.03
2022-08-19T20:22:00.753Z,5.43
2022-08-19T20:24:34.501Z,4.05
2022-08-19T20:27:03.439Z,5.20
2022-08-19T20:29:44.228Z,3.72
2022-08-19T20:32:14.905Z,4.85
2022-08-19T20:43:46.885Z,5.50
2022-08-19T20:46:16.184Z,11.45
2022-08-19T20:48:42.853Z,3.55
2022-08-19T20:51:11.220Z,3.85
2022-08-19T20:53:41.680Z,5.53
2022-08-19T20:56:33.397Z,3.72
2022-08-19T20:59:03.557Z,4.50
2022-08-19T21:01:30.220Z,3.13
2022-08-19T21:04:02.322Z,3.03
2022-08-19T21:06:28.924Z,4.72
2022-08-19T21:08:56.156Z,4.38
2022-08-19T21:11:23.036Z,4.10
2022-08-19T21:13:58.202Z,4.57
2022-08-19T21:16:31.786Z,2.47
2022-08-19T21:19:01.663Z,3.08
2022-08-19T21:21:32.328Z,1.95
2022-08-19T21:24:03.604Z,3.05
2022-08-19T21:26:35.545Z,2.83
2022-08-19T21:29:03.394Z,5.65
2022-08-19T21:31:35.188Z,2.10
2022-08-19T21:34:04.626Z,5.25
2022-08-19T21:36:31.628Z,2.25
2022-08-19T21:38:58.758Z,5.00
2022-08-19T21:41:26.695Z,2.03
2022-08-19T21:43:54.408Z,1.20
2022-08-19T21:46:21.909Z,1.50
2022-08-19T21:48:48.580Z,1.55
2022-08-19T21:54:08.041Z,3.70
2022-08-19T21:56:43.682Z,1.30
2022-08-19T21:59:12.767Z,4.10
2022-08-19T22:01:39.456Z,2.40
2022-08-19T22:06:55.547Z,1.58
2022-08-19T22:09:22.190Z,1.35
2022-08-19T22:12:20.043Z,3.38
2022-08-19T22:14:46.758Z,2.15
2022-08-19T22:17:24.959Z,2.00
2022-08-19T22:19:57.768Z,0.90
2022-08-19T22:22:27.670Z,2.88
2022-08-19T22:25:03.600Z,2.05
2022-08-19T22:27:30.702Z,1.20
2022-08-19T22:32:48.794Z,1.75
2022-08-19T22:35:25.150Z,1.80
2022-08-19T22:38:24.463Z,0.93
2022-08-19T22:40:58.577Z,1.70
2022-08-19T22:43:58.491Z,2.80
2022-08-19T22:46:25.220Z,3.75
2022-08-19T22:48:56.643Z,3.95
2022-08-19T22:54:47.624Z,3.33
2022-08-19T22:57:22.857Z,2.17
2022-08-19T22:59:51.365Z,1.73
2022-08-19T23:02:30.643Z,1.85
2022-08-19T23:05:03.519Z,1.60
2022-08-19T23:07:32.789Z,2.47
2022-08-19T23:10:05.724Z,2.75
2022-08-19T23:12:40.499Z,1.38
2022-08-19T23:15:11.747Z,3.33
2022-08-19T23:17:43.958Z,1.33
2022-08-19T23:23:32.400Z,6.07
2022-08-19T23:26:01.595Z,1.50
2022-08-19T23:28:49.442Z,1.00
2022-08-19T23:31:24.765Z,3.13
2022-08-19T23:33:55.426Z,1.40
2022-08-19T23:39:17.092Z,1.23
2022-08-19T23:41:43.712Z,1.20
2022-08-19T23:44:14.493Z,1.20
2022-08-19T23:46:54.540Z,2.53
2022-08-19T23:49:27.709Z,0.90
2022-08-19T23:52:30.585Z,3.55
2022-08-19T23:55:07.981Z,2.53
2022-08-19T23:57:38.734Z,2.13
